Prochaines Courses

Connexion

Trail

ODYSSEE Trail du 15/06/14 (Réelle 6)
Rang Dossard Nom Prénom Temps Cat Rang Cat Ecart Ecart Cat Club Vitesse Km/h Temps au Km
1 69 THESSE David CUCHEVAL Mathias 00:26:11   1 00:00:00 00:00:00 COT 13,749 04:22
2 35 DRANSART Adrien MOULLIERE Richard 00:27:07   2 00:00:56 00:00:56 BERCK TRIATHLON 13,276 04:31
3 4 HURTEL David BOUCLET Bastien 00:28:17   3 00:02:06 00:02:06 TEAM OPALE COYOTE 1 12,728 04:43
4 70 MILLE Sébastien DUCROCQ Marc Antoine 00:28:22   4 00:02:11 00:02:11 LES BOFS 2 12,691 04:44
5 68 DEPANNEMAECKER Eric BRUNOT YOANN 00:28:48   5 00:02:37 00:02:37 CAPONORD DUNKERQUE RAID AVENTURE 12,500 04:48
6 85 QUEVAL Jean Jacques BELVILLE   Philippe 00:28:56   6 00:02:45 00:02:45 RETOUR VERS LE FUTUR 12,442 04:49
7 21 GUYOT Fabien MATRINGHEN Tony 00:29:11   7 00:03:00 00:03:00 LES PETITS BAIGNEURS 12,336 04:52
8 66 PRIEZ Julien LEMAIRE Benjamin 00:29:17   8 00:03:06 00:03:06 LES NEOPHYTES 12,294 04:53
9 92 MAQUINGHEN Christophe DUCLOY Kévin 00:29:18   9 00:03:07 00:03:07 JACK ET DANIELS 12,287 04:53
10 89 LECOUTRE Thierry DEBETTE Florian 00:29:35   10 00:03:24 00:03:24 TEAM OTN 3 12,169 04:56
11 11 FRANCOIS Gilbert ANDRIEUX Dimitri 00:29:51   11 00:03:40 00:03:40 MARCK'ATHLON 12,060 04:59
12 61 BOUTON Rémi RIEZ Gael 00:30:05   12 00:03:54 00:03:54 TIWANAKU CREW 11,967 05:01
13 1 LANDRECIES Loic CROGIEZ José 00:30:11   13 00:04:00 00:04:00 VELOLAND SAINT MARTIN BOULOGNE 11,927 05:02
14 47 DELANNOY Bastien LACROIX Olivier 00:30:45   14 00:04:34 00:04:34 LES P'TITS SEINGES 11,707 05:07
15 9 MAZURIER Alain PIERRU Reynald 00:30:52   15 00:04:41 00:04:41 LES 2 VENTS TANGUY 11,663 05:09
16 79 LE BEC Mickael PODEVIN Eric 00:30:54   16 00:04:43 00:04:43 LES ACHARNES 11,650 05:09
17 16 CARPENTIER Thierry SUEUR Fabrice 00:30:57   17 00:04:46 00:04:46 SPORT EVASION DES 2 CAPS "LES VETERANS" 11,632 05:10
18 36 QUEVAL Charles Hubert CARRE   Pauline 00:30:57   18 00:04:46 00:04:46 LILLE 2 LA TENTATION 11,632 05:10
19 58 HACHE Nicolas HERENT Martin 00:30:59   19 00:04:48 00:04:48 POUTINE POWER 11,619 05:10
20 64 BUSSON Elie CABOCHE Antoine 00:31:06   20 00:04:55 00:04:55 TEAM BIANCHI 11,576 05:11
21 93 DIEUSET Anthony DOYER Laurent 00:31:09   21 00:04:58 00:04:58 OPALE TRAIL NATURE LES JEUNES 11,557 05:12
22 86 LESAGE Franck BOYAVAL Stéphane 00:31:22   22 00:05:11 00:05:11 DUNKERQUE RAID AVENTURE 3 11,477 05:14
23 96 LECENDRE Olivier DUMONT Emmanuel 00:31:43   23 00:05:32 00:05:32 LA DEUXIEME CHANCE 11,350 05:17
24 81 LEVEL Fabien NOEL David 00:31:45   24 00:05:34 00:05:34 TEAM CAPELLOIS 11,339 05:18
25 71 RINGUET Fred PERARD Thierry 00:31:49   25 00:05:38 00:05:38 RINGUET-PERARD 11,315 05:18
26 8 VICONGNE Geoffrey FOULON Julien 00:31:52   26 00:05:41 00:05:41 LES PETITS NIN-NINS 11,297 05:19
27 25 PAVY Frédéric PRUVOT Romain 00:31:57   27 00:05:46 00:05:46 ROMOLO 11,268 05:20
28 37 AIGOUY Damien CUCHEVAL Florence 00:32:05   28 00:05:54 00:05:54 LYS CALAIS TRI 11,221 05:21
29 72 CHARBONNIER Grégory CHARBONNIER   Wilfried 00:32:22   29 00:06:11 00:06:11 CHICOUMI 11,123 05:24
30 44 GRESSIER Olivier KUSCHNICK Fabrice 00:32:31   30 00:06:20 00:06:20 SPORT ANIM 11,071 05:25
31 73 BARROIS Cédric BARROIS Céline 00:32:45   31 00:06:34 00:06:34 LES CAPELLOIS 10,992 05:28
32 50 GODART Jean Christophe DEPLECHIN   David 00:32:52   32 00:06:41 00:06:41 GO DEP TEAM 10,953 05:29
33 75 DAVIAUD Fabrice KALOLEWSKI Pascal 00:33:08   33 00:06:57 00:06:57 LA SELEçAO DE SAINTE CECILE 10,865 05:31
34 34 MACQUET Bruno GUYOT Rémi 00:33:16   34 00:07:05 00:07:05 OPALE TRAIL NATURE 10,822 05:33
35 42 LEDEZ Jean-Bernard DUFLOS Henri 00:33:27   35 00:07:16 00:07:16 POMME CANNELLE 10,762 05:35
36 7 DUWAT Fredéric LEVEL Eddy 00:33:33   36 00:07:22 00:07:22 ULYSSE ET TELEMAQUE 10,730 05:35
37 53 GUERVILLE Maxime SUEUR Samuel 00:33:42   37 00:07:31 00:07:31 THE BEST 10,682 05:37
38 46 FONTAINE Nicolas LEFEBVRE Tony 00:33:44   38 00:07:33 00:07:33 AC OUTREAU NOVICES 10,672 05:37
39 87 DEVOLDER Jean-Bernard COURTECUISSE   Julien 00:33:49   39 00:07:38 00:07:38 O'MAX TEAM 10,646 05:38
40 19 HENOT Romain HERALY Julien 00:33:53   40 00:07:42 00:07:42 THE J.R.H TEAM 10,625 05:39
41 28 MAYE Aubin PREVOST Maxime 00:34:03   41 00:07:52 00:07:52 MAXBIN 10,573 05:41
42 31 LAIDEZ Jonathan VIENNE Samuel 00:34:16   42 00:08:05 00:08:05 TEAM SPORTANIM 10,506 05:43
43 15 MONTIGNY Dimitri GAVOIS Cyril 00:34:29   43 00:08:18 00:08:18 LES JEUNOTS DE SPORT EVASION DES 2 CAPS 10,440 05:45
44 97 HOLUIGUE Frédéric DIERKERS Maxime 00:34:46   44 00:08:35 00:08:35 TEAM DU BAR 10,355 05:48
45 30 FRANCOIS Guillaume FIEVET Arnold 00:34:50   45 00:08:39 00:08:39 NULS ET FIERS DE L ETRE 10,335 05:48
46 55 DUFRENNE Jacques DUFRENNE Elise 00:34:58   46 00:08:47 00:08:47 PÈRE ET FILLE ESCAP AVENTURE 10,296 05:50
47 76 LECERF Renaud PETA Jeanne estelle 00:35:12   47 00:09:01 00:09:01 ESCAP'AVENTURE MIXTE 10,227 05:52
48 90 LOYER Virginie POURRE Fabienne 00:35:32   48 00:09:21 00:09:21 L AGENCE TOUT RISQUE 10,131 05:55
49 59 BELLAMBOIS Stéphane VANDERZYPPE   Ludovic 00:35:39   49 00:09:28 00:09:28 LES 69 10,098 05:56
50 52 DAQUIN Gérard DEFOSSE Alexandra 00:35:46   50 00:09:35 00:09:35 LES EDUCS 10,065 05:58
51 65 RAMBURE Dominique LIGNIER Rodolphe 00:35:55   51 00:09:44 00:09:44 LES BOFS 10,023 05:59
52 22 GIGADEN Eddy GIGADEN Mathilde 00:36:00   52 00:09:49 00:09:49 EDDY MATH 10,000 06:00
53 10 BAILLY François BUTEL David 00:36:10   53 00:09:59 00:09:59 LES BEAUFS 9,954 06:02
54 56 DRAVIGNY Thibaud CARON William 00:36:21   54 00:10:10 00:10:10 LES WELSH GROS 9,904 06:03
55 24 PRUDHOMME Georges DOUILLY Franck 00:36:32   55 00:10:21 00:10:21 DOUD'HOMME 9,854 06:05
56 80 COMPIEGNE Stéphane FEVRIER Antoine 00:36:42   56 00:10:31 00:10:31 LES GIGOLOS 9,809 06:07
57 88 LANGLET Mathieu GOSSELIN Rudy 00:36:53   57 00:10:42 00:10:42 LES COYOTTES 3 9,761 06:09
58 94 WAROT Antoine GLACON Guillaume 00:36:54   58 00:10:43 00:10:43 LA CUISSE RAID TEAM 9,756 06:09
59 6 BILLIET Adrien FLAHAUT Cyril 00:37:05   59 00:10:54 00:10:54 NO STRESS 9,708 06:11
60 63 MACQUET Olivier THUILLIER Patrick 00:37:12   60 00:11:01 00:11:01 2DEFOL 9,677 06:12
61 77 LECERF Robin LECERF   Bastien 00:37:36   61 00:11:25 00:11:25 LES COUZ D'ESCAP 9,574 06:16
62 84 KAMINSKI Olivia DEWISPELAERE   Frédéric 00:37:38   62 00:11:27 00:11:27 ARV'ENTURE NORTHWAVE 9,566 06:16
63 3 TINCHON Didier VANDENBERGUE   Aurélie 00:37:38   63 00:11:27 00:11:27 TEAM AUREDID 9,566 06:16
64 23 RUITZ Joseph DAMETTE Odile 00:37:44   64 00:11:33 00:11:33 JULBO RUITZ 9,541 06:17
65 98 TEILLIER Thomas DEBOVE Thomas 00:37:48   65 00:11:37 00:11:37 LES THOMA'S 9,524 06:18
66 45 POYER Hortense DAUDIER DE CASSINI   Amicie 00:38:14   66 00:12:03 00:12:03 LES FOYALLE 9,416 06:22
67 5 HURTRELLE Guyslain FEVRIER Cédric 00:38:17   67 00:12:06 00:12:06 TEAM OPALE COYOTE 2 9,404 06:23
68 32 PRUD HOMME Mickael MASCOT   Christophe 00:38:33   68 00:12:22 00:12:22 LES LIMACES 9,339 06:25
69 39 BOUVILLE Mélanie BRIDENNE Agnès 00:38:43   69 00:12:32 00:12:32 TEAM BACO FILLES 9,298 06:27
70 43 FIN Fabien FOUTREN Paul 00:38:45   70 00:12:34 00:12:34 LES HERBY OTN 9,290 06:28
71 95 DELIANCOURT Laurent LECLERC   Laurent 00:38:45   71 00:12:34 00:12:34 LES CHTIOS 9,290 06:28
72 40 RYCKEBUSCH Stephane RYCKEBUSCH   Marie 00:38:47   72 00:12:36 00:12:36 RYCKY'S 9,282 06:28
73 18 SEILLIER Christophe RENOUX Yohan 00:39:06   73 00:12:55 00:12:55 LES GUEULARDS 9,207 06:31
74 29 SCHEHR Quentin ROQUIGNY Chloé 00:39:13   74 00:13:02 00:13:02 LES SHETLAND VOLVO 9,180 06:32
75 62 LOBERT Vincent HANQUEZ Emmanuel 00:39:36   75 00:13:25 00:13:25 MANU TEAM 9,091 06:36
76 33 RINGARD Julien LIEGEOIS Gaelle 00:39:39   76 00:13:28 00:13:28 LES TOMBES RAIDEUR 9,079 06:36
77 27 GHYS Gérald TISON Vincent 00:40:13   77 00:14:02 00:14:02 LES Z'ZAMIS 8,952 06:42
78 54 BUCKMAN Laetitia BOYAVAL Charlotte 00:41:06   78 00:14:55 00:14:55 DUNKERQUE RAID AVENTURE 8,759 06:51
79 38 LEPRETRE Charles GENTIT Berangère 00:42:06   79 00:15:55 00:15:55 LES NOVICES 8,551 07:01
80 26 FILMOTTE Franck HANQUEZ Rudy 00:42:06   80 00:15:55 00:15:55 LES BRIOCHES 8,551 07:01
81 67 BAREGE Aurélien SENTUNE Laura 00:42:29   81 00:16:18 00:16:18 L'AURAL'SBAR 8,474 07:05
82 51 DAGHEAUX Armel BODART   Jean-François 00:42:35   82 00:16:24 00:16:24 LES FOLIENS 8,454 07:06
83 60 VANDERZYPPE Catherine LESAGE   Magali 00:44:02   83 00:17:51 00:17:51 BANANAS 8,176 07:20
84 78 QUANDALLE Christophe DEBETTE   Clément 00:44:22   84 00:18:11 00:18:11 LES BOURNONVILLOIS 8,114 07:24
85 91 DE MONESTEL Frédérique ZYBENA Marc 00:44:34   85 00:18:23 00:18:23 BREAKRAIDERS 8,078 07:26
86 2 BLOUIN Samuel BLOUIN Delphine 00:45:38   86 00:19:27 00:19:27 LES SAMOUREUX 7,889 07:36
87 83 CAMPAGNE Sandra CUENOT Alban 00:46:16   87 00:20:05 00:20:05 LES ZINZINS 7,781 07:43
88 20 DEBAS Gérard ANDRU Reynald 00:46:18   88 00:20:07 00:20:07 FOR EVER 7,775 07:43
89 41 NEANT Stéphanie TKACZ Olivier 00:46:44   89 00:20:33 00:20:33 LES TOUQUETTOIS 7,703 07:47
90 57 GUERVILLE Noémie BEZEAU Thibault 00:48:02   90 00:21:51 00:21:51 COUSIN & COUSINE 7,495 08:00
91 14 DUCLOY Alexandra SUEUR Mélanie 00:48:25   91 00:22:14 00:22:14 LES SENEGAZELLES DE SPORT EVASION DES 2 CAPS 7,435 08:04
92 82 DELATTRE David BULOT Stéphane 00:50:41   92 00:24:30 00:24:30 LES ZOULOUS 7,103 08:27
93 48 SEIGNEUR Carole GENNEBAUD Olivier 00:51:37   93 00:25:26 00:25:26 LES GROS SEINGES 6,974 08:36